Pagina principale
METAR-TAF:

METAR-TAF

Aeroporti :

Aeroporto Internazionale di Larnaca

Larnaca, Cipro

latitudine: 34-53N, longitudine: 033-38E, altezza: 2 m

Osservazione

Il bollettino è stato emesso 31 minuti fa, alle 03:00 UTC
Vento 2 kt da nord-ovest
Temperature 19°C
Umidità 100%
Pressione 1009 hPa
Visibilità 10 km o più
Poco nuvoloso ad un'altezza di 2000 ft

METAR: LCLK 270300Z 32002KT 9999 FEW020 19/19 Q1009 NOSIG

Ora: 06:31 (03:31 UTC)

Previsione

Il bollettino è stato emesso 4 ore e 1 minuti fa, alle 23:30 UTC
Previsione valida dal 27 alle 00 UTC al 27 alle 24 UTC
Vento 7 kt da nord/nord-ovest
Visibilità 10 km o più
Poco nuvoloso ad un'altezza di 2500 ft
Evoluzione graduale
dal 27 alle 09 UTC al 27 alle 13 UTC
Vento 12 kt da sud/sud-ovest
Evoluzione graduale
dal 27 alle 18 UTC al 27 alle 21 UTC
Vento 8 kt da nord-ovest

TAF: LCLK 262330Z 2700/2724 34007KT 9999 FEW025 BECMG 2709/2713 21012KT BECMG 2718/2721 32008KT

Osservazioni e previsioni meteorologiche di più di 4000 aeroporti (messaggi METAR e TAF).

Le stazioni disponibili sono rappresentate dai dischi gialli e rossi sulla carta.

Puntare il mouse per vedere il nome della stazione.

Clicca sopra per visualizzare le osservazioni e previsioni meteorologiche.

Per cambiare la mappa : fare clic sui pulsanti verdi con una croce nera per ingrandire, il pulsante verde con un trattino per diminuire, o sulla freccia verde per le mappe adiacenti.


METAR-TAF: